Time;durP1;ratioP1;P1;durP2;ratioP2;P2;SDS_P1;SDS_P2;PMS_P1;PMS_P2;Temp;Humidity;BMP_temperature;BMP_pressure;BME280_temperature;BME280_humidity;BME280_pressure;Samples;Min_cycle;Max_cycle;Signal;HPM_P1;HPM_P2
2022/08/18 00:00:13;;;;;;;1.75;1.27;;;17.70;1.40;;;18.86;100.00;95046.09;647374;212;31586;-71
2022/08/18 00:02:51;;;;;;;1.80;1.70;;;17.70;1.40;;;18.85;100.00;95056.61;647010;216;31487;-73
2022/08/18 00:05:33;;;;;;;0.80;0.80;;;17.70;1.40;;;18.83;100.00;95057.49;646235;216;31611;-72
2022/08/18 00:08:15;;;;;;;0.90;0.90;;;17.70;1.40;;;18.86;100.00;95053.80;645892;216;31516;-73
2022/08/18 00:10:57;;;;;;;1.95;1.08;;;17.70;1.40;;;18.91;100.00;95058.34;647380;216;31878;-73
2022/08/18 00:13:39;;;;;;;1.50;1.30;;;17.60;1.40;;;18.83;100.00;95058.39;645836;216;31578;-72
2022/08/18 00:16:20;;;;;;;1.00;1.00;;;17.60;1.40;;;18.76;100.00;95053.72;637460;216;32169;-71
2022/08/18 00:19:08;;;;;;;2.10;0.95;;;17.60;1.40;;;18.78;100.00;95053.55;647734;216;31722;-75
2022/08/18 00:21:56;;;;;;;2.50;1.50;;;17.60;1.40;;;18.76;100.00;95052.16;645826;212;31570;-71
2022/08/18 00:24:37;;;;;;;1.50;0.70;;;17.50;1.40;;;18.73;100.00;95048.63;620120;226;32027;-71
2022/08/18 00:27:20;;;;;;;0.82;0.82;;;17.50;1.40;;;18.69;100.00;95051.66;647591;216;31521;-71
2022/08/18 00:30:04;;;;;;;1.23;1.12;;;17.50;1.40;;;18.76;100.00;95054.50;645037;216;31627;-71
2022/08/18 00:32:47;;;;;;;1.50;1.40;;;17.50;1.40;;;18.75;100.00;95054.42;646349;216;31609;-72
2022/08/18 00:35:51;;;;;;;1.40;1.00;;;17.50;1.40;;;18.77;100.00;95056.47;645149;215;42199;-73
2022/08/18 00:38:33;;;;;;;2.20;1.20;;;17.50;1.40;;;18.69;100.00;95052.94;646286;212;31552;-73
2022/08/18 00:41:15;;;;;;;0.70;0.60;;;17.50;1.40;;;18.67;100.00;95054.35;647560;216;31536;-71
2022/08/18 00:44:00;;;;;;;1.80;0.87;;;17.50;1.40;;;18.71;100.00;95048.19;646117;216;31678;-71
2022/08/18 00:46:41;;;;;;;1.30;0.60;;;17.50;1.40;;;18.71;100.00;95035.38;645956;216;31524;-72
2022/08/18 00:49:23;;;;;;;1.20;0.90;;;17.50;1.40;;;18.73;100.00;95031.16;647834;212;31478;-72
2022/08/18 00:52:08;;;;;;;1.00;0.90;;;17.50;1.40;;;18.67;100.00;95031.65;646651;216;31554;-71
2022/08/18 00:54:50;;;;;;;9.88;1.37;;;17.50;1.40;;;18.61;100.00;95039.56;646080;216;31516;-71
2022/08/18 00:57:31;;;;;;;1.40;0.70;;;17.40;1.40;;;18.63;100.00;95056.61;646120;212;31999;-71
2022/08/18 01:00:14;;;;;;;1.30;1.10;;;17.50;1.40;;;18.65;100.00;95061.98;645475;212;31973;-72
2022/08/18 01:02:55;;;;;;;1.10;1.00;;;17.40;1.40;;;18.56;100.00;95068.11;619686;226;31788;-71
2022/08/18 01:05:39;;;;;;;1.30;0.80;;;17.30;1.40;;;18.54;100.00;95070.55;646284;216;31516;-71
2022/08/18 01:08:19;;;;;;;1.20;1.10;;;17.10;1.40;;;18.43;100.00;95069.83;646016;216;32168;-71
2022/08/18 01:11:02;;;;;;;2.78;1.65;;;17.00;1.40;;;18.38;100.00;95069.25;618755;226;31890;-70
2022/08/18 01:13:43;;;;;;;1.50;1.40;;;17.10;1.40;;;18.29;100.00;95065.91;646228;212;31524;-70
2022/08/18 01:21:59;;;;;;;1.60;1.20;;;17.10;1.40;;;18.23;100.00;95071.49;630308;217;42687;-70
2022/08/18 01:27:30;;;;;;;1.50;1.10;;;17.00;1.40;;;18.23;100.00;95062.69;647454;216;31673;-71
2022/08/18 01:30:10;;;;;;;1.35;1.08;;;17.00;1.40;;;18.20;100.00;95062.47;645704;216;31557;-71
2022/08/18 01:32:55;;;;;;;1.90;1.17;;;17.00;1.40;;;18.18;100.00;95056.83;646838;216;31542;-70
2022/08/18 01:35:51;;;;;;;1.70;1.10;;;16.90;1.40;;;18.11;100.00;95057.06;646346;216;31462;-71
2022/08/18 01:38:33;;;;;;;3.10;1.30;;;16.80;1.40;;;18.08;100.00;95053.50;645227;212;31667;-72
2022/08/18 01:41:15;;;;;;;1.50;1.40;;;16.70;1.40;;;18.03;100.00;95047.11;646128;215;31489;-71
2022/08/18 01:43:58;;;;;;;3.83;0.80;;;16.80;1.40;;;18.00;100.00;95043.50;647409;212;31505;-73
2022/08/18 01:46:40;;;;;;;2.42;1.60;;;16.80;1.40;;;17.95;100.00;95043.22;646162;212;31531;-71
2022/08/18 01:49:22;;;;;;;1.70;1.42;;;16.80;1.40;;;17.90;100.00;95041.30;619289;222;31857;-70
2022/08/18 01:52:05;;;;;;;11.10;1.40;;;16.70;1.40;;;17.91;100.00;95040.28;646440;216;31476;-73
2022/08/18 01:54:46;;;;;;;0.40;0.40;;;16.70;1.40;;;17.87;100.00;95028.07;618382;226;32048;-71
2022/08/18 01:57:28;;;;;;;1.00;0.90;;;16.60;1.40;;;17.79;100.00;95025.52;646848;212;31527;-71
2022/08/18 02:00:11;;;;;;;0.83;0.83;;;16.60;1.40;;;17.80;100.00;95034.31;647401;212;31698;-71
2022/08/18 02:02:53;;;;;;;1.10;1.00;;;16.60;1.40;;;17.74;100.00;95030.05;645953;216;31530;-72
2022/08/18 02:05:35;;;;;;;2.10;1.00;;;16.50;1.40;;;17.68;100.00;95032.25;620421;226;31893;-71
2022/08/18 02:08:17;;;;;;;1.90;0.80;;;16.50;1.40;;;17.64;100.00;95034.72;647822;216;31732;-72
2022/08/18 02:10:59;;;;;;;0.70;0.70;;;16.40;1.40;;;17.59;100.00;95032.30;645690;216;31530;-71
2022/08/18 02:13:41;;;;;;;1.25;1.12;;;16.30;1.40;;;17.55;100.00;95030.62;646823;212;31498;-71
2022/08/18 02:16:22;;;;;;;0.80;0.75;;;16.20;1.40;;;17.53;100.00;95034.66;618200;225;31839;-71
2022/08/18 02:19:04;;;;;;;1.40;0.90;;;16.20;1.40;;;17.52;100.00;95029.80;645789;212;31694;-70
2022/08/18 02:21:45;;;;;;;0.60;0.60;;;16.20;1.40;;;17.51;100.00;95025.24;647363;212;31591;-73
2022/08/18 02:24:27;;;;;;;1.02;1.02;;;16.20;1.40;;;17.51;100.00;95013.84;645806;216;31538;-71
2022/08/18 02:27:09;;;;;;;1.20;1.10;;;16.20;1.40;;;17.48;100.00;95019.53;645671;212;31574;-71
2022/08/18 02:29:51;;;;;;;0.90;0.90;;;16.10;1.40;;;17.47;100.00;95015.52;646879;212;32071;-71
2022/08/18 02:32:32;;;;;;;2.90;1.58;;;16.20;1.40;;;17.41;100.00;95014.95;646901;216;31552;-71
2022/08/18 02:35:53;;;;;;;1.25;1.17;;;16.10;1.40;;;17.38;100.00;95012.78;647019;216;32115;-71
2022/08/18 02:38:35;;;;;;;1.77;1.67;;;16.00;1.40;;;17.36;100.00;95013.69;646152;212;32575;-71
2022/08/18 02:41:17;;;;;;;1.30;1.20;;;16.00;1.40;;;17.32;100.00;95015.87;646105;216;31588;-71
2022/08/18 02:43:58;;;;;;;1.60;1.27;;;16.00;1.40;;;17.26;100.00;95010.92;619806;226;31859;-71
2022/08/18 02:46:42;;;;;;;1.90;0.95;;;15.90;1.40;;;17.22;100.00;94999.09;646252;216;31475;-71
2022/08/18 02:49:24;;;;;;;1.12;1.02;;;15.80;1.40;;;17.18;100.00;94995.89;645777;216;32071;-72
2022/08/18 02:52:05;;;;;;;0.60;0.50;;;15.70;1.40;;;17.16;100.00;94995.39;646671;212;31506;-71
2022/08/18 02:57:22;;;;;;;1.10;0.80;;;15.70;1.40;;;17.18;100.00;95004.14;646693;216;31534;-70
2022/08/18 03:00:04;;;;;;;0.70;0.70;;;15.60;1.40;;;17.12;100.00;95009.98;646199;216;31900;-72
2022/08/18 03:02:47;;;;;;;1.10;0.90;;;15.70;1.40;;;17.08;100.00;95009.63;647933;212;31491;-71
2022/08/18 03:07:09;;;;;;;0.90;0.90;;;15.80;1.40;;;17.04;100.00;95003.10;647322;216;42663;-71
2022/08/18 03:09:52;;;;;;;0.77;0.65;;;15.80;1.40;;;17.04;100.00;94997.23;646847;212;42778;-71
2022/08/18 03:12:34;;;;;;;1.40;0.90;;;15.80;1.40;;;17.06;100.00;95002.20;647084;216;31833;-71
2022/08/18 03:15:16;;;;;;;2.00;1.50;;;15.70;1.40;;;17.00;100.00;95005.94;643399;216;31698;-70
2022/08/18 03:17:58;;;;;;;1.37;1.27;;;15.60;1.40;;;17.04;100.00;95004.70;647129;216;32120;-73
2022/08/18 03:20:42;;;;;;;1.60;1.50;;;15.60;1.40;;;17.10;100.00;95004.62;646344;216;31483;-70
2022/08/18 03:23:21;;;;;;;1.20;1.00;;;15.80;1.40;;;17.09;100.00;94995.50;646339;216;31481;-71
2022/08/18 03:26:03;;;;;;;2.10;1.20;;;15.80;1.40;;;17.09;100.00;94982.10;645902;216;32152;-70
2022/08/18 03:28:44;;;;;;;1.40;1.00;;;15.70;1.40;;;17.08;100.00;94973.27;647233;216;31577;-71
2022/08/18 03:31:26;;;;;;;0.90;0.80;;;15.60;1.40;;;17.08;100.00;94974.05;647079;216;31477;-71
2022/08/18 03:36:23;;;;;;;1.10;0.80;;;15.70;1.40;;;17.01;100.00;94970.56;645855;216;42209;-71
2022/08/18 03:39:04;;;;;;;1.77;1.12;;;15.60;1.40;;;17.00;100.00;94961.73;647354;212;33362;-71
2022/08/18 03:41:46;;;;;;;1.40;1.30;;;15.50;1.40;;;16.95;100.00;94965.35;646345;212;31594;-71
2022/08/18 03:44:29;;;;;;;0.90;0.90;;;15.40;1.40;;;16.88;100.00;94960.81;646826;216;31735;-71
2022/08/18 03:47:11;;;;;;;0.70;0.30;;;15.30;1.40;;;16.92;100.00;94954.47;646829;216;31490;-71
2022/08/18 03:49:56;;;;;;;0.40;0.35;;;15.30;1.40;;;16.82;100.00;94949.84;618987;226;31811;-72
2022/08/18 03:52:37;;;;;;;1.40;1.30;;;15.20;1.40;;;16.82;100.00;94959.58;645048;212;31468;-71
2022/08/18 03:55:19;;;;;;;0.80;0.60;;;15.30;1.40;;;16.80;100.00;94960.81;646409;212;32025;-70
2022/08/18 03:58:03;;;;;;;0.70;0.60;;;15.40;1.40;;;16.85;100.00;94960.16;645826;212;32076;-71
2022/08/18 04:00:44;;;;;;;1.30;1.20;;;15.40;1.40;;;16.82;100.00;94962.00;646133;212;32077;-72
2022/08/18 04:03:27;;;;;;;1.42;1.33;;;15.30;1.40;;;16.81;100.00;94963.16;646755;212;31525;-71
2022/08/18 04:06:08;;;;;;;3.60;0.75;;;15.30;1.40;;;16.81;100.00;94965.17;647194;212;31468;-71
2022/08/18 04:08:51;;;;;;;0.70;0.70;;;15.40;1.40;;;16.81;100.00;94957.11;645474;216;32149;-73
2022/08/18 04:11:33;;;;;;;0.83;0.80;;;15.40;1.40;;;16.72;100.00;94957.79;646013;212;32103;-71
2022/08/18 04:14:17;;;;;;;0.80;0.80;;;15.20;1.40;;;16.70;100.00;94953.80;646599;216;32153;-71
2022/08/18 04:16:58;;;;;;;0.40;0.30;;;15.30;1.40;;;16.68;100.00;94937.79;634321;216;33608;-70
2022/08/18 04:22:17;;;;;;;1.17;1.17;;;15.10;1.40;;;16.59;100.00;94927.87;645959;212;31483;-73
2022/08/18 04:25:00;;;;;;;1.00;1.00;;;15.10;1.40;;;16.54;100.00;94938.52;647423;216;31529;-71
2022/08/18 04:27:42;;;;;;;0.60;0.50;;;15.10;1.40;;;16.63;100.00;94949.67;645766;212;31542;-73
2022/08/18 04:30:27;;;;;;;1.60;1.08;;;15.30;1.40;;;16.71;100.00;94946.82;647019;216;32218;-71
2022/08/18 04:35:51;;;;;;;1.45;1.35;;;15.30;1.40;;;16.73;100.00;94946.58;645310;216;31698;-72
2022/08/18 04:38:33;;;;;;;0.80;0.80;;;15.20;1.40;;;16.78;100.00;94953.34;645327;216;31548;-71
2022/08/18 04:41:15;;;;;;;0.55;0.55;;;15.20;1.40;;;16.68;100.00;94952.25;619557;226;31813;-71
2022/08/18 04:43:57;;;;;;;0.90;0.90;;;15.10;1.40;;;16.59;100.00;94943.80;646406;216;42131;-71
2022/08/18 04:46:40;;;;;;;0.73;0.73;;;14.90;1.40;;;16.54;100.00;94939.74;618758;222;31871;-70
2022/08/18 04:49:24;;;;;;;0.90;0.90;;;14.90;1.40;;;16.56;100.00;94939.16;619365;226;31993;-71
2022/08/18 04:54:51;;;;;;;5.72;3.78;;;15.00;1.40;;;16.68;100.00;94950.60;646841;216;31545;-71
2022/08/18 04:57:32;;;;;;;1.17;1.08;;;15.10;1.40;;;16.76;100.00;94966.31;646706;216;31745;-70
2022/08/18 05:00:14;;;;;;;1.20;1.10;;;15.20;1.40;;;16.88;100.00;94977.20;645953;212;31537;-72
2022/08/18 05:02:56;;;;;;;1.30;1.20;;;15.30;1.40;;;17.00;100.00;94981.49;619383;226;31826;-71
2022/08/18 05:05:38;;;;;;;1.27;1.17;;;15.40;1.40;;;17.19;100.00;94984.75;647539;216;32015;-71
2022/08/18 05:08:21;;;;;;;1.55;1.45;;;15.60;1.40;;;17.34;100.00;94984.05;647273;216;31927;-71
2022/08/18 05:11:01;;;;;;;1.00;1.00;;;15.80;1.40;;;17.58;100.00;94976.00;630826;221;31700;-72
2022/08/18 05:13:46;;;;;;;0.65;0.65;;;16.00;1.40;;;17.80;100.00;94968.00;646135;216;32116;-72
2022/08/18 05:16:28;;;;;;;1.80;1.70;;;16.30;1.40;;;18.12;100.00;94964.41;634250;216;31667;-71
2022/08/18 05:19:13;;;;;;;1.10;1.00;;;16.50;1.40;;;18.33;100.00;94979.84;651030;216;31484;-72
2022/08/18 05:21:54;;;;;;;1.42;1.10;;;16.70;1.40;;;18.37;100.00;94988.22;652054;216;32011;-71
2022/08/18 05:24:39;;;;;;;1.20;1.10;;;16.80;1.40;;;18.51;100.00;94997.39;647706;216;31520;-72
2022/08/18 05:27:20;;;;;;;0.90;0.80;;;17.00;1.40;;;18.44;100.00;95007.59;649669;212;32030;-71
2022/08/18 05:30:02;;;;;;;3.00;2.00;;;16.90;1.40;;;18.58;100.00;95016.04;649820;212;31644;-71
2022/08/18 05:32:44;;;;;;;0.75;0.75;;;17.10;1.40;;;18.54;100.00;95025.09;643720;219;32078;-72
2022/08/18 05:35:51;;;;;;;2.50;2.30;;;17.10;1.40;;;18.49;100.00;95024.45;646389;216;42185;-72
2022/08/18 05:41:32;;;;;;;2.30;1.60;;;17.30;1.40;;;18.71;100.00;95021.08;649171;212;32101;-74
2022/08/18 05:44:11;;;;;;;0.93;0.75;;;17.30;1.40;;;18.90;100.00;95017.59;652035;212;31576;-72
2022/08/18 05:46:58;;;;;;;1.20;1.10;;;17.50;1.40;;;19.02;100.00;95017.16;647213;216;31513;-71
2022/08/18 05:49:40;;;;;;;2.15;2.05;;;17.70;1.40;;;19.27;100.00;95020.11;649582;216;31499;-71
2022/08/18 05:52:29;;;;;;;0.60;0.60;;;17.80;1.40;;;19.05;100.00;95023.60;647754;212;32323;-71
2022/08/18 05:57:58;;;;;;;1.00;0.80;;;17.70;1.40;;;19.02;100.00;95024.00;648181;216;31633;-73
2022/08/18 06:00:40;;;;;;;0.90;0.80;;;17.70;1.40;;;19.07;100.00;95019.92;651810;216;31834;-71
2022/08/18 06:03:24;;;;;;;2.15;1.95;;;17.70;1.40;;;19.21;100.00;95033.23;644896;216;31518;-73
2022/08/18 06:06:07;;;;;;;1.10;1.00;;;17.80;1.40;;;19.34;100.00;95035.20;647365;216;31871;-70
2022/08/18 06:09:11;;;;;;;1.90;1.10;;;17.80;1.40;;;19.44;100.00;95035.37;645556;216;31814;-70
2022/08/18 06:11:54;;;;;;;2.90;1.20;;;17.90;1.40;;;19.51;100.00;95037.41;648522;212;31504;-70
2022/08/18 06:14:35;;;;;;;2.45;1.52;;;18.00;1.40;;;19.27;100.00;95049.22;646557;212;31535;-71
2022/08/18 06:17:39;;;;;;;1.20;1.08;;;17.90;1.40;;;19.27;100.00;95047.94;645870;212;31589;-70
2022/08/18 06:20:24;;;;;;;5.68;1.00;;;17.90;1.40;;;19.26;100.00;95049.44;645258;212;31559;-70
2022/08/18 06:23:24;;;;;;;1.87;1.40;;;17.80;1.40;;;19.51;100.00;95046.48;648189;216;31509;-70
2022/08/18 06:26:19;;;;;;;2.60;1.90;;;18.10;1.40;;;19.41;100.00;95051.03;648046;216;31568;-71
2022/08/18 06:29:30;;;;;;;1.37;1.27;;;18.00;1.40;;;19.21;100.00;95049.60;647137;212;31524;-70
2022/08/18 06:32:27;;;;;;;1.40;1.30;;;17.90;1.40;;;19.44;100.00;95033.47;648281;212;31544;-70
2022/08/18 06:36:01;;;;;;;2.50;1.50;;;18.10;1.40;;;19.77;100.00;95026.37;645708;216;42179;-71
2022/08/18 06:38:54;;;;;;;2.47;2.05;;;18.30;1.40;;;20.01;100.00;95018.95;617895;226;31898;-71
2022/08/18 06:41:37;;;;;;;2.35;1.30;;;18.40;1.40;;;19.98;100.00;95015.52;646603;216;31483;-71
2022/08/18 06:44:42;;;;;;;2.30;1.10;;;18.40;1.40;;;20.34;100.00;95025.99;618063;226;32286;-71
2022/08/18 06:47:36;;;;;;;2.17;1.30;;;18.70;1.40;;;20.39;100.00;95038.16;646176;216;34488;-71
2022/08/18 06:50:28;;;;;;;1.95;1.70;;;18.80;1.40;;;20.20;100.00;95046.95;646151;216;31563;-71
2022/08/18 06:53:09;;;;;;;1.30;1.20;;;18.50;1.40;;;20.33;100.00;95046.73;647386;212;42169;-70
2022/08/18 06:55:54;;;;;;;2.42;1.30;;;18.60;1.40;;;20.21;100.00;95044.29;646667;216;31527;-70
2022/08/18 06:58:36;;;;;;;1.60;1.30;;;18.60;1.40;;;20.18;100.00;95036.66;646034;216;31497;-71
2022/08/18 07:01:18;;;;;;;3.08;2.17;;;18.50;1.40;;;19.98;100.00;95024.35;645779;216;31541;-70
2022/08/18 07:04:02;;;;;;;1.42;1.20;;;18.50;1.40;;;20.24;100.00;95015.56;646559;216;31585;-70
2022/08/18 07:06:44;;;;;;;1.58;1.15;;;18.70;1.40;;;20.16;100.00;95015.94;645919;213;31514;-70
2022/08/18 07:09:26;;;;;;;2.20;2.00;;;18.80;1.40;;;20.39;100.00;95017.53;647185;216;42172;-70
2022/08/18 07:12:07;;;;;;;1.50;1.40;;;18.90;1.40;;;20.71;100.00;95026.39;646706;216;31606;-69
2022/08/18 07:14:53;;;;;;;1.92;1.27;;;19.10;1.40;;;20.60;100.00;95022.88;644447;212;31521;-71
2022/08/18 07:17:36;;;;;;;1.58;1.30;;;19.10;1.40;;;20.75;100.00;95016.00;646179;216;31545;-70
2022/08/18 07:20:22;;;;;;;2.12;1.48;;;19.30;1.40;;;21.21;100.00;95014.29;646376;216;31607;-70
2022/08/18 07:23:03;;;;;;;2.80;1.80;;;19.60;1.40;;;21.32;100.00;95002.51;648051;216;32703;-70
2022/08/18 07:25:44;;;;;;;2.72;2.00;;;19.80;1.40;;;21.69;100.00;94998.38;647060;212;31528;-70
2022/08/18 07:31:10;;;;;;;3.35;1.65;;;20.30;1.40;;;22.58;100.00;95009.17;645106;216;31923;-70
2022/08/18 07:35:53;;;;;;;2.03;1.70;;;20.50;1.40;;;22.72;100.00;95002.78;646818;216;31579;-70
2022/08/18 07:38:41;;;;;;;1.92;1.35;;;20.70;1.40;;;22.78;100.00;95000.87;645818;216;31697;-70
2022/08/18 07:41:40;;;;;;;1.90;1.80;;;20.90;1.40;;;22.97;100.00;94995.84;645968;216;31566;-71
2022/08/18 07:44:26;;;;;;;2.08;1.40;;;20.80;1.40;;;23.12;100.00;95002.43;647379;216;32513;-70
2022/08/18 07:47:09;;;;;;;1.83;1.20;;;21.00;1.40;;;22.85;100.00;95005.22;645536;216;31589;-70
2022/08/18 07:52:25;;;;;;;2.47;1.90;;;20.70;1.40;;;22.93;100.00;95008.91;646776;216;31597;-70
2022/08/18 07:55:10;;;;;;;1.90;1.37;;;20.90;1.40;;;23.35;100.00;95004.97;646169;216;32166;-71
2022/08/18 07:57:52;;;;;;;2.70;1.70;;;21.10;1.40;;;23.82;100.00;95011.50;645509;212;31799;-70
2022/08/18 08:03:47;;;;;;;2.03;1.73;;;21.80;1.40;;;24.04;100.00;95026.58;646242;216;42347;-70
2022/08/18 08:06:51;;;;;;;2.00;1.45;;;21.80;1.40;;;23.46;100.00;95028.39;646889;213;42344;-71
2022/08/18 08:09:52;;;;;;;2.70;1.98;;;21.30;1.40;;;23.96;100.00;95023.91;645342;216;31514;-70
2022/08/18 08:12:36;;;;;;;2.00;1.80;;;21.80;1.40;;;23.97;100.00;95029.41;646692;216;31619;-71
2022/08/18 08:15:27;;;;;;;3.10;1.77;;;21.90;1.40;;;24.07;100.00;95037.30;642858;216;31721;-71
2022/08/18 08:18:12;;;;;;;3.70;2.17;;;22.00;1.40;;;24.21;100.00;95036.06;646541;216;31587;-70
2022/08/18 08:20:54;;;;;;;2.65;2.05;;;22.30;1.40;;;24.20;100.00;95036.92;618530;226;31891;-70
2022/08/18 08:24:04;;;;;;;2.30;2.00;;;22.30;1.40;;;24.82;100.00;95043.28;648501;212;31625;-70
2022/08/18 08:27:09;;;;;;;2.97;2.10;;;22.30;1.40;;;24.38;100.00;95034.23;647808;216;42170;-70
2022/08/18 08:29:55;;;;;;;2.78;2.15;;;22.40;1.40;;;24.97;100.00;95025.33;646058;216;31544;-70
2022/08/18 08:32:36;;;;;;;2.15;1.95;;;22.70;1.40;;;24.70;100.00;95019.46;646935;216;42156;-71
2022/08/18 08:35:54;;;;;;;2.20;1.73;;;22.50;1.40;;;24.55;100.00;95011.90;645058;212;31591;-70
2022/08/18 08:38:54;;;;;;;4.10;2.53;;;22.50;1.40;;;24.75;100.00;95008.58;645681;216;31660;-71
2022/08/18 08:41:40;;;;;;;2.40;2.20;;;22.70;1.40;;;25.20;100.00;95013.12;646698;216;31534;-70
2022/08/18 08:44:26;;;;;;;2.42;2.20;;;23.00;1.40;;;25.14;100.00;95002.59;646145;216;32388;-71
2022/08/18 08:47:11;;;;;;;2.20;1.90;;;22.90;1.40;;;25.39;100.00;94996.80;647626;212;31563;-71
2022/08/18 08:49:54;;;;;;;3.12;2.50;;;23.00;1.40;;;25.46;100.00;94993.92;645507;216;31609;-71
2022/08/18 08:52:51;;;;;;;3.20;2.42;;;23.20;1.40;;;25.02;100.00;94997.50;644169;212;31551;-70
2022/08/18 08:55:34;;;;;;;3.45;2.40;;;22.80;1.40;;;24.22;100.00;95016.02;647647;216;31538;-70
2022/08/18 08:58:32;;;;;;;3.20;2.90;;;22.60;1.40;;;24.70;100.00;95009.08;619457;222;31932;-70
2022/08/18 09:01:33;;;;;;;3.97;2.30;;;23.00;1.40;;;24.61;100.00;94993.25;646626;216;31524;-71
2022/08/18 09:04:21;;;;;;;6.43;2.45;;;23.20;1.40;;;24.89;100.00;94990.23;647034;216;31548;-70
2022/08/18 09:09:52;;;;;;;3.30;2.58;;;26.30;1.40;;;25.94;100.00;94983.21;645597;216;32226;-71
2022/08/18 09:12:43;;;;;;;6.03;2.42;;;27.90;1.40;;;27.20;100.00;94973.83;646351;216;31668;-70
2022/08/18 09:15:50;;;;;;;3.55;2.80;;;29.10;1.40;;;28.84;94.40;94959.08;642888;216;31841;-70
2022/08/18 09:18:50;;;;;;;5.80;2.58;;;30.40;1.40;;;29.71;81.46;94973.98;645909;216;32079;-70
2022/08/18 09:21:37;;;;;;;3.58;2.65;;;28.90;1.40;;;27.97;85.63;94984.34;647136;216;31645;-70
2022/08/18 09:24:23;;;;;;;2.95;2.67;;;24.90;1.40;;;25.70;100.00;94979.08;646702;216;31542;-71
2022/08/18 09:27:26;;;;;;;3.00;2.00;;;24.90;1.40;;;28.77;93.04;94967.59;646981;216;42170;-71
2022/08/18 09:30:08;;;;;;;3.10;2.40;;;29.60;1.40;;;30.24;79.55;94963.65;645866;216;31540;-71
2022/08/18 09:32:52;;;;;;;3.30;2.60;;;31.00;1.40;;;31.52;73.23;94956.80;646204;216;31705;-71
2022/08/18 09:35:55;;;;;;;3.25;2.58;;;30.20;1.40;;;32.13;71.49;94953.48;646453;216;31901;-70
2022/08/18 09:44:14;;;;;;;3.20;2.10;;;30.40;1.40;;;31.79;68.20;94951.58;646522;216;42323;-70
2022/08/18 09:46:59;;;;;;;2.78;2.55;;;29.90;1.40;;;30.87;71.17;94940.61;645701;216;35134;-71
2022/08/18 09:49:45;;;;;;;3.50;2.40;;;29.40;1.40;;;33.25;70.81;94946.14;646439;216;42199;-71
2022/08/18 09:52:48;;;;;;;3.50;2.10;;;31.90;1.40;;;34.38;64.64;94963.91;645678;216;32096;-71
2022/08/18 09:55:41;;;;;;;2.70;2.50;;;32.30;1.40;;;33.30;61.39;94958.12;646474;216;42600;-70
2022/08/18 10:01:21;;;;;;;3.08;2.50;;;26.60;1.40;;;30.06;71.79;94965.06;647401;216;31649;-71
2022/08/18 10:04:26;;;;;;;3.25;2.95;;;27.40;1.40;;;31.75;63.67;94972.33;646447;216;31887;-71
2022/08/18 10:07:15;;;;;;;3.00;2.58;;;29.90;1.40;;;33.68;62.28;94964.31;647291;212;31801;-71
2022/08/18 10:10:41;;;;;;;2.85;2.40;;;31.20;1.40;;;33.59;59.04;94967.14;646260;216;31736;-70
2022/08/18 10:13:43;;;;;;;3.83;3.10;;;31.40;1.40;;;34.81;58.36;94968.18;647165;212;31750;-71
2022/08/18 10:16:29;;;;;;;3.90;2.92;;;32.20;1.40;;;34.19;57.61;94969.92;610549;226;32095;-71
2022/08/18 10:19:36;;;;;;;2.70;2.50;;;31.00;1.40;;;34.14;58.99;94977.92;645993;212;31655;-71
2022/08/18 10:22:17;;;;;;;2.80;2.40;;;30.40;1.40;;;35.68;55.75;94967.67;647820;212;31859;-71
2022/08/18 10:24:59;;;;;;;3.10;2.70;;;33.10;1.40;;;35.89;53.78;94960.86;646015;216;34669;-71
2022/08/18 10:27:52;;;;;;;3.05;2.85;;;33.40;1.40;;;37.97;50.98;94954.13;646273;212;42425;-71
2022/08/18 10:30:48;;;;;;;2.90;2.58;;;35.90;1.40;;;37.83;46.67;94953.73;645566;216;31658;-71
2022/08/18 10:35:54;;;;;;;3.10;2.90;;;34.20;1.40;;;37.81;49.09;94975.84;646962;212;31626;-70
2022/08/18 10:38:38;;;;;;;2.97;2.70;;;35.10;1.40;;;37.87;45.20;94963.60;646212;216;32123;-71
2022/08/18 10:41:28;;;;;;;4.17;3.60;;;33.80;1.40;;;37.93;46.69;94942.83;645869;216;32450;-71
2022/08/18 10:44:10;;;;;;;3.58;3.20;;;31.90;1.40;;;37.56;46.49;94945.88;631726;222;33406;-71
2022/08/18 10:46:52;;;;;;;3.58;3.28;;;33.70;1.40;;;37.54;46.83;94944.63;648075;212;31650;-71
2022/08/18 10:49:33;;;;;;;3.10;2.80;;;33.70;1.40;;;37.55;46.89;94941.64;646182;216;31680;-71
2022/08/18 10:55:11;;;;;;;3.50;3.20;;;34.70;1.40;;;38.57;46.91;94918.95;648212;216;31630;-72
2022/08/18 10:57:59;;;;;;;2.70;2.50;;;35.10;1.40;;;38.42;45.41;94926.52;645201;216;33477;-71
2022/08/18 11:00:46;;;;;;;2.60;2.40;;;35.10;1.40;;;39.24;45.16;94929.11;645148;216;31625;-72
2022/08/18 11:03:35;;;;;;;2.90;2.70;;;35.50;1.40;;;38.40;44.47;94924.87;647110;212;32150;-71
2022/08/18 11:06:20;;;;;;;3.15;2.95;;;34.30;1.40;;;38.04;46.57;94922.25;646119;216;31739;-71
2022/08/18 11:09:01;;;;;;;3.67;3.37;;;31.40;1.40;;;37.31;44.43;94922.16;646782;216;31658;-72
2022/08/18 11:11:43;;;;;;;4.00;3.23;;;31.10;1.40;;;36.18;47.61;94913.36;646098;216;31803;-72
2022/08/18 11:14:50;;;;;;;3.40;3.10;;;31.80;1.40;;;36.05;48.22;94891.86;646559;216;31538;-71
2022/08/18 11:17:35;;;;;;;2.90;2.70;;;32.90;1.40;;;38.32;44.03;94894.95;645636;216;42251;-71
2022/08/18 11:20:19;;;;;;;3.33;2.90;;;33.10;1.40;;;37.96;42.94;94901.98;645532;212;31652;-70
2022/08/18 11:23:03;;;;;;;3.20;2.90;;;32.10;1.40;;;36.41;44.76;94891.31;619616;226;31964;-71
2022/08/18 11:25:48;;;;;;;2.97;2.67;;;29.30;1.40;;;35.15;47.29;94874.70;646431;216;42874;-71
2022/08/18 11:28:29;;;;;;;5.90;3.00;;;28.40;1.40;;;33.24;52.08;94878.41;645285;212;31645;-71
2022/08/18 11:31:11;;;;;;;3.35;3.05;;;28.30;1.40;;;32.91;51.58;94877.05;619144;222;32054;-71
2022/08/18 11:35:56;;;;;;;3.10;2.80;;;28.50;1.40;;;32.35;53.13;94863.77;646418;212;31624;-70
2022/08/18 11:38:36;;;;;;;2.62;2.42;;;28.20;1.40;;;34.38;51.79;94864.39;645724;216;31586;-71
2022/08/18 11:41:18;;;;;;;2.80;2.50;;;31.70;1.40;;;36.09;47.36;94873.88;647071;216;32008;-70
2022/08/18 11:44:02;;;;;;;2.53;2.33;;;31.50;1.40;;;34.71;48.39;94864.94;645464;212;32274;-70
2022/08/18 11:49:18;;;;;;;3.40;2.90;;;30.70;1.40;;;33.84;50.42;94841.13;619030;226;32092;-70
2022/08/18 11:52:04;;;;;;;3.40;3.00;;;30.90;1.40;;;35.11;48.50;94825.13;646819;216;31677;-70
2022/08/18 11:54:44;;;;;;;3.40;2.75;;;32.30;1.40;;;36.21;46.87;94813.83;647004;216;31557;-71
2022/08/18 11:57:35;;;;;;;3.10;2.80;;;33.30;1.40;;;38.67;44.05;94795.94;646564;212;31657;-71
2022/08/18 12:00:33;;;;;;;3.10;2.80;;;34.30;1.40;;;39.04;42.45;94787.41;618088;226;32193;-71
2022/08/18 12:03:32;;;;;;;3.50;3.20;;;33.50;1.40;;;39.50;42.74;94783.77;646661;216;31709;-71
2022/08/18 12:06:18;;;;;;;3.50;3.20;;;35.40;1.40;;;39.45;41.58;94779.97;619490;222;32161;-71
2022/08/18 12:09:01;;;;;;;2.78;2.58;;;34.00;1.40;;;37.30;45.11;94769.61;646354;212;31641;-71
2022/08/18 12:11:56;;;;;;;3.40;3.00;;;33.20;1.40;;;39.43;43.51;94756.67;647831;216;31678;-71
2022/08/18 12:14:53;;;;;;;3.37;3.17;;;33.50;1.40;;;38.59;43.76;94759.94;646649;216;31612;-71
2022/08/18 12:17:45;;;;;;;5.00;4.00;;;31.50;1.40;;;33.53;50.99;94790.19;646952;216;31724;-71
2022/08/18 12:20:30;;;;;;;3.80;3.35;;;30.10;1.40;;;36.05;47.14;94791.20;647412;216;31597;-71
2022/08/18 12:23:11;;;;;;;3.30;3.00;;;32.00;1.40;;;37.28;45.96;94792.77;645599;216;31567;-71
2022/08/18 12:25:53;;;;;;;3.50;3.20;;;32.50;1.40;;;38.09;44.08;94800.92;619043;226;31917;-71
2022/08/18 12:28:35;;;;;;;2.70;2.50;;;33.10;1.40;;;38.21;42.35;94786.94;646672;212;31695;-70
2022/08/18 12:31:17;;;;;;;2.83;2.62;;;32.60;1.40;;;36.28;44.39;94783.75;645601;212;31703;-70
2022/08/18 12:35:52;;;;;;;2.75;2.55;;;32.40;1.40;;;35.20;46.70;94788.89;647274;216;32300;-71
2022/08/18 12:38:33;;;;;;;3.58;3.20;;;30.90;1.40;;;34.06;49.25;94786.81;647024;213;31674;-71
2022/08/18 12:41:15;;;;;;;3.75;3.45;;;30.00;1.40;;;34.18;49.29;94788.56;646728;216;31738;-71